sensor_id;sensor_type;location;lat;lon;timestamp;P1;durP1;ratioP1;P2;durP2;ratioP2
52438;SDS011;38359;53.150;6.504;2022-10-31T00:08:31;77.50;;;31.60;;
52438;SDS011;38359;53.150;6.504;2022-10-31T00:18:58;76.55;;;31.05;;
52438;SDS011;38359;53.150;6.504;2022-10-31T00:29:26;70.00;;;31.08;;
52438;SDS011;38359;53.150;6.504;2022-10-31T00:39:52;70.97;;;30.70;;
52438;SDS011;38359;53.150;6.504;2022-10-31T00:50:18;74.47;;;30.67;;
52438;SDS011;38359;53.150;6.504;2022-10-31T01:00:46;80.68;;;30.55;;
52438;SDS011;38359;53.150;6.504;2022-10-31T01:11:20;78.75;;;29.50;;
52438;SDS011;38359;53.150;6.504;2022-10-31T01:21:48;73.07;;;30.38;;
52438;SDS011;38359;53.150;6.504;2022-10-31T01:32:14;74.72;;;29.67;;
52438;SDS011;38359;53.150;6.504;2022-10-31T01:42:40;60.60;;;28.27;;
52438;SDS011;38359;53.150;6.504;2022-10-31T01:53:06;66.40;;;27.98;;
52438;SDS011;38359;53.150;6.504;2022-10-31T02:03:34;69.15;;;29.52;;
52438;SDS011;38359;53.150;6.504;2022-10-31T02:14:00;66.32;;;29.60;;
52438;SDS011;38359;53.150;6.504;2022-10-31T02:35:33;71.93;;;32.42;;
52438;SDS011;38359;53.150;6.504;2022-10-31T02:47:10;66.10;;;31.50;;
52438;SDS011;38359;53.150;6.504;2022-10-31T02:57:37;73.93;;;32.75;;
52438;SDS011;38359;53.150;6.504;2022-10-31T03:08:15;59.08;;;30.38;;
52438;SDS011;38359;53.150;6.504;2022-10-31T03:19:02;74.43;;;31.00;;
52438;SDS011;38359;53.150;6.504;2022-10-31T03:29:57;60.10;;;30.38;;
52438;SDS011;38359;53.150;6.504;2022-10-31T03:40:29;59.13;;;29.05;;
52438;SDS011;38359;53.150;6.504;2022-10-31T03:51:14;58.25;;;28.58;;
52438;SDS011;38359;53.150;6.504;2022-10-31T04:01:55;62.65;;;27.38;;
52438;SDS011;38359;53.150;6.504;2022-10-31T04:12:31;54.25;;;25.35;;
52438;SDS011;38359;53.150;6.504;2022-10-31T04:22:59;45.65;;;24.73;;
52438;SDS011;38359;53.150;6.504;2022-10-31T04:33:26;35.15;;;19.52;;
52438;SDS011;38359;53.150;6.504;2022-10-31T04:43:52;33.58;;;17.98;;
52438;SDS011;38359;53.150;6.504;2022-10-31T04:54:18;38.63;;;21.13;;
52438;SDS011;38359;53.150;6.504;2022-10-31T05:04:44;37.50;;;20.55;;
52438;SDS011;38359;53.150;6.504;2022-10-31T05:15:10;50.72;;;27.90;;
52438;SDS011;38359;53.150;6.504;2022-10-31T05:25:36;61.72;;;29.50;;
52438;SDS011;38359;53.150;6.504;2022-10-31T05:36:01;62.72;;;30.55;;
52438;SDS011;38359;53.150;6.504;2022-10-31T05:46:27;70.65;;;34.45;;
52438;SDS011;38359;53.150;6.504;2022-10-31T05:56:53;64.88;;;33.45;;
52438;SDS011;38359;53.150;6.504;2022-10-31T06:07:19;73.10;;;34.70;;
52438;SDS011;38359;53.150;6.504;2022-10-31T06:17:45;62.85;;;33.53;;
52438;SDS011;38359;53.150;6.504;2022-10-31T06:28:10;65.85;;;35.90;;
52438;SDS011;38359;53.150;6.504;2022-10-31T06:38:36;71.50;;;34.88;;
52438;SDS011;38359;53.150;6.504;2022-10-31T06:49:03;69.90;;;35.42;;
52438;SDS011;38359;53.150;6.504;2022-10-31T06:59:29;56.88;;;31.48;;
52438;SDS011;38359;53.150;6.504;2022-10-31T07:09:55;33.60;;;19.23;;
52438;SDS011;38359;53.150;6.504;2022-10-31T07:20:21;30.02;;;18.73;;
52438;SDS011;38359;53.150;6.504;2022-10-31T07:30:53;27.88;;;16.85;;
52438;SDS011;38359;53.150;6.504;2022-10-31T07:41:22;33.58;;;17.05;;
52438;SDS011;38359;53.150;6.504;2022-10-31T07:51:49;44.70;;;25.75;;
52438;SDS011;38359;53.150;6.504;2022-10-31T08:02:15;67.82;;;32.95;;
52438;SDS011;38359;53.150;6.504;2022-10-31T08:12:41;56.00;;;33.55;;
52438;SDS011;38359;53.150;6.504;2022-10-31T08:23:08;61.45;;;34.30;;
52438;SDS011;38359;53.150;6.504;2022-10-31T08:33:36;56.60;;;32.45;;
52438;SDS011;38359;53.150;6.504;2022-10-31T08:44:02;64.40;;;33.60;;
52438;SDS011;38359;53.150;6.504;2022-10-31T08:54:28;56.25;;;31.63;;
52438;SDS011;38359;53.150;6.504;2022-10-31T09:04:53;50.15;;;29.70;;
52438;SDS011;38359;53.150;6.504;2022-10-31T09:15:19;57.90;;;31.40;;
52438;SDS011;38359;53.150;6.504;2022-10-31T09:25:45;57.60;;;32.92;;
52438;SDS011;38359;53.150;6.504;2022-10-31T09:36:12;49.90;;;30.50;;
52438;SDS011;38359;53.150;6.504;2022-10-31T09:57:37;52.40;;;30.77;;
52438;SDS011;38359;53.150;6.504;2022-10-31T10:08:12;42.75;;;26.55;;
52438;SDS011;38359;53.150;6.504;2022-10-31T10:29:50;34.85;;;23.92;;
52438;SDS011;38359;53.150;6.504;2022-10-31T10:40:36;42.45;;;25.58;;
52438;SDS011;38359;53.150;6.504;2022-10-31T10:51:03;42.83;;;26.05;;
52438;SDS011;38359;53.150;6.504;2022-10-31T11:01:31;40.60;;;25.00;;
52438;SDS011;38359;53.150;6.504;2022-10-31T11:11:57;38.65;;;23.52;;
52438;SDS011;38359;53.150;6.504;2022-10-31T11:22:24;34.58;;;22.40;;
52438;SDS011;38359;53.150;6.504;2022-10-31T11:32:50;31.77;;;18.23;;
52438;SDS011;38359;53.150;6.504;2022-10-31T11:43:17;30.45;;;17.48;;
52438;SDS011;38359;53.150;6.504;2022-10-31T11:53:49;29.23;;;15.48;;
52438;SDS011;38359;53.150;6.504;2022-10-31T12:04:18;25.55;;;12.82;;
52438;SDS011;38359;53.150;6.504;2022-10-31T12:15:02;22.27;;;11.38;;
52438;SDS011;38359;53.150;6.504;2022-10-31T12:26:17;18.00;;;8.52;;
52438;SDS011;38359;53.150;6.504;2022-10-31T12:58:49;16.73;;;6.40;;
52438;SDS011;38359;53.150;6.504;2022-10-31T13:09:30;23.13;;;6.10;;
52438;SDS011;38359;53.150;6.504;2022-10-31T13:20:24;20.75;;;7.88;;
52438;SDS011;38359;53.150;6.504;2022-10-31T13:30:54;24.02;;;6.90;;
52438;SDS011;38359;53.150;6.504;2022-10-31T13:41:22;16.20;;;7.03;;
52438;SDS011;38359;53.150;6.504;2022-10-31T14:02:36;18.35;;;7.13;;
52438;SDS011;38359;53.150;6.504;2022-10-31T14:13:03;20.55;;;6.35;;
52438;SDS011;38359;53.150;6.504;2022-10-31T14:23:43;16.65;;;5.72;;
52438;SDS011;38359;53.150;6.504;2022-10-31T14:34:23;19.02;;;5.90;;
52438;SDS011;38359;53.150;6.504;2022-10-31T14:55:43;29.83;;;12.20;;
52438;SDS011;38359;53.150;6.504;2022-10-31T15:06:14;24.10;;;9.85;;
52438;SDS011;38359;53.150;6.504;2022-10-31T15:16:43;29.85;;;8.60;;
52438;SDS011;38359;53.150;6.504;2022-10-31T15:27:16;30.38;;;9.73;;
52438;SDS011;38359;53.150;6.504;2022-10-31T15:37:44;37.53;;;10.33;;
52438;SDS011;38359;53.150;6.504;2022-10-31T15:48:17;30.27;;;12.03;;
52438;SDS011;38359;53.150;6.504;2022-10-31T15:58:48;27.17;;;11.80;;
52438;SDS011;38359;53.150;6.504;2022-10-31T16:09:23;32.53;;;11.90;;
52438;SDS011;38359;53.150;6.504;2022-10-31T16:20:03;25.05;;;11.48;;
52438;SDS011;38359;53.150;6.504;2022-10-31T16:30:35;26.88;;;9.88;;
52438;SDS011;38359;53.150;6.504;2022-10-31T16:41:12;22.73;;;9.82;;
52438;SDS011;38359;53.150;6.504;2022-10-31T16:51:37;19.15;;;10.50;;
52438;SDS011;38359;53.150;6.504;2022-10-31T17:02:03;24.73;;;10.10;;
52438;SDS011;38359;53.150;6.504;2022-10-31T17:12:29;25.00;;;10.38;;
52438;SDS011;38359;53.150;6.504;2022-10-31T17:22:55;22.58;;;12.18;;
52438;SDS011;38359;53.150;6.504;2022-10-31T17:33:23;25.88;;;14.13;;
52438;SDS011;38359;53.150;6.504;2022-10-31T17:43:53;37.58;;;18.92;;
52438;SDS011;38359;53.150;6.504;2022-10-31T17:54:20;38.03;;;20.20;;
52438;SDS011;38359;53.150;6.504;2022-10-31T18:04:46;45.15;;;21.65;;
52438;SDS011;38359;53.150;6.504;2022-10-31T18:15:12;50.53;;;25.63;;
52438;SDS011;38359;53.150;6.504;2022-10-31T18:25:40;51.88;;;27.83;;
52438;SDS011;38359;53.150;6.504;2022-10-31T18:36:07;58.63;;;31.33;;
52438;SDS011;38359;53.150;6.504;2022-10-31T18:46:35;64.10;;;32.08;;
52438;SDS011;38359;53.150;6.504;2022-10-31T18:57:01;66.72;;;34.33;;
52438;SDS011;38359;53.150;6.504;2022-10-31T19:07:27;64.28;;;34.45;;
52438;SDS011;38359;53.150;6.504;2022-10-31T19:17:53;76.70;;;38.05;;
52438;SDS011;38359;53.150;6.504;2022-10-31T19:28:20;76.38;;;37.45;;
52438;SDS011;38359;53.150;6.504;2022-10-31T19:38:47;75.55;;;38.10;;
52438;SDS011;38359;53.150;6.504;2022-10-31T19:49:15;78.70;;;38.80;;
52438;SDS011;38359;53.150;6.504;2022-10-31T19:59:41;82.07;;;41.05;;
52438;SDS011;38359;53.150;6.504;2022-10-31T20:10:07;89.78;;;42.83;;
52438;SDS011;38359;53.150;6.504;2022-10-31T20:20:33;89.07;;;42.97;;
52438;SDS011;38359;53.150;6.504;2022-10-31T20:30:59;91.32;;;42.65;;
52438;SDS011;38359;53.150;6.504;2022-10-31T20:41:25;97.32;;;44.42;;
52438;SDS011;38359;53.150;6.504;2022-10-31T20:51:51;99.05;;;43.58;;
52438;SDS011;38359;53.150;6.504;2022-10-31T21:02:17;97.43;;;45.33;;
52438;SDS011;38359;53.150;6.504;2022-10-31T21:12:43;96.95;;;44.28;;
52438;SDS011;38359;53.150;6.504;2022-10-31T21:23:10;98.82;;;46.30;;
52438;SDS011;38359;53.150;6.504;2022-10-31T21:33:36;93.60;;;44.83;;
52438;SDS011;38359;53.150;6.504;2022-10-31T21:44:02;92.07;;;39.88;;
52438;SDS011;38359;53.150;6.504;2022-10-31T21:54:28;75.00;;;33.90;;
52438;SDS011;38359;53.150;6.504;2022-10-31T22:04:56;66.03;;;30.83;;
52438;SDS011;38359;53.150;6.504;2022-10-31T22:15:22;60.13;;;29.95;;
52438;SDS011;38359;53.150;6.504;2022-10-31T22:25:48;52.53;;;24.85;;
52438;SDS011;38359;53.150;6.504;2022-10-31T22:36:14;50.65;;;25.95;;
52438;SDS011;38359;53.150;6.504;2022-10-31T22:46:44;49.63;;;23.58;;
52438;SDS011;38359;53.150;6.504;2022-10-31T22:57:10;49.30;;;23.20;;
52438;SDS011;38359;53.150;6.504;2022-10-31T23:07:35;39.03;;;21.58;;
52438;SDS011;38359;53.150;6.504;2022-10-31T23:18:04;43.63;;;21.20;;
52438;SDS011;38359;53.150;6.504;2022-10-31T23:28:30;41.80;;;19.98;;
52438;SDS011;38359;53.150;6.504;2022-10-31T23:38:56;34.88;;;18.38;;
52438;SDS011;38359;53.150;6.504;2022-10-31T23:49:24;43.03;;;18.35;;
52438;SDS011;38359;53.150;6.504;2022-10-31T23:59:50;37.55;;;16.77;;
